sensor_id;sensor_type;location;lat;lon;timestamp;P1;durP1;ratioP1;P2;durP2;ratioP2
64936;SDS011;51452;47.698;19.050;2022-12-07T00:00:16;6.83;;;3.90;;
64936;SDS011;51452;47.698;19.050;2022-12-07T00:02:42;5.37;;;3.53;;
64936;SDS011;51452;47.698;19.050;2022-12-07T00:05:07;3.77;;;2.50;;
64936;SDS011;51452;47.698;19.050;2022-12-07T00:07:33;5.67;;;3.20;;
64936;SDS011;51452;47.698;19.050;2022-12-07T00:09:58;5.87;;;2.77;;
64936;SDS011;51452;47.698;19.050;2022-12-07T00:12:23;5.57;;;2.90;;
64936;SDS011;51452;47.698;19.050;2022-12-07T00:14:49;5.63;;;2.63;;
64936;SDS011;51452;47.698;19.050;2022-12-07T00:17:14;4.43;;;3.00;;
64936;SDS011;51452;47.698;19.050;2022-12-07T00:19:39;5.90;;;3.20;;
64936;SDS011;51452;47.698;19.050;2022-12-07T00:22:05;4.50;;;2.67;;
64936;SDS011;51452;47.698;19.050;2022-12-07T00:24:30;4.67;;;2.90;;
64936;SDS011;51452;47.698;19.050;2022-12-07T00:26:59;4.70;;;2.80;;
64936;SDS011;51452;47.698;19.050;2022-12-07T00:29:24;4.10;;;2.33;;
64936;SDS011;51452;47.698;19.050;2022-12-07T00:31:49;4.67;;;2.60;;
64936;SDS011;51452;47.698;19.050;2022-12-07T00:34:16;4.90;;;2.80;;
64936;SDS011;51452;47.698;19.050;2022-12-07T00:36:43;3.87;;;2.63;;
64936;SDS011;51452;47.698;19.050;2022-12-07T00:39:09;4.17;;;2.53;;
64936;SDS011;51452;47.698;19.050;2022-12-07T00:41:34;5.73;;;3.27;;
64936;SDS011;51452;47.698;19.050;2022-12-07T00:44:00;5.27;;;3.00;;
64936;SDS011;51452;47.698;19.050;2022-12-07T00:46:25;4.60;;;2.70;;
64936;SDS011;51452;47.698;19.050;2022-12-07T00:48:51;3.73;;;2.60;;
64936;SDS011;51452;47.698;19.050;2022-12-07T00:51:18;4.97;;;2.83;;
64936;SDS011;51452;47.698;19.050;2022-12-07T00:53:46;4.13;;;2.77;;
64936;SDS011;51452;47.698;19.050;2022-12-07T00:56:13;4.73;;;2.73;;
64936;SDS011;51452;47.698;19.050;2022-12-07T00:58:38;4.17;;;2.67;;
64936;SDS011;51452;47.698;19.050;2022-12-07T01:01:04;4.20;;;2.63;;
64936;SDS011;51452;47.698;19.050;2022-12-07T01:03:31;4.10;;;2.57;;
64936;SDS011;51452;47.698;19.050;2022-12-07T01:05:57;3.10;;;2.30;;
64936;SDS011;51452;47.698;19.050;2022-12-07T01:08:23;4.10;;;2.47;;
64936;SDS011;51452;47.698;19.050;2022-12-07T01:10:57;4.70;;;2.37;;
64936;SDS011;51452;47.698;19.050;2022-12-07T01:13:27;3.67;;;2.50;;
64936;SDS011;51452;47.698;19.050;2022-12-07T01:15:55;4.10;;;2.40;;
64936;SDS011;51452;47.698;19.050;2022-12-07T01:18:22;3.33;;;2.20;;
64936;SDS011;51452;47.698;19.050;2022-12-07T01:20:56;3.90;;;2.40;;
64936;SDS011;51452;47.698;19.050;2022-12-07T01:23:35;3.30;;;2.13;;
64936;SDS011;51452;47.698;19.050;2022-12-07T01:26:03;3.90;;;2.17;;
64936;SDS011;51452;47.698;19.050;2022-12-07T01:28:30;2.67;;;2.17;;
64936;SDS011;51452;47.698;19.050;2022-12-07T01:31:03;3.60;;;2.00;;
64936;SDS011;51452;47.698;19.050;2022-12-07T01:33:35;3.28;;;2.10;;
64936;SDS011;51452;47.698;19.050;2022-12-07T01:36:07;4.63;;;2.27;;
64936;SDS011;51452;47.698;19.050;2022-12-07T01:38:50;4.47;;;2.30;;
64936;SDS011;51452;47.698;19.050;2022-12-07T01:41:21;4.53;;;2.13;;
64936;SDS011;51452;47.698;19.050;2022-12-07T01:46:34;3.80;;;2.20;;
64936;SDS011;51452;47.698;19.050;2022-12-07T01:48:59;4.60;;;2.60;;
64936;SDS011;51452;47.698;19.050;2022-12-07T01:51:26;4.43;;;2.43;;
64936;SDS011;51452;47.698;19.050;2022-12-07T01:53:52;3.97;;;2.50;;
64936;SDS011;51452;47.698;19.050;2022-12-07T01:56:19;4.73;;;2.90;;
64936;SDS011;51452;47.698;19.050;2022-12-07T01:58:47;3.33;;;2.20;;
64936;SDS011;51452;47.698;19.050;2022-12-07T02:01:14;3.90;;;2.40;;
64936;SDS011;51452;47.698;19.050;2022-12-07T02:03:40;4.10;;;2.57;;
64936;SDS011;51452;47.698;19.050;2022-12-07T02:06:07;4.93;;;2.80;;
64936;SDS011;51452;47.698;19.050;2022-12-07T02:08:34;3.57;;;2.10;;
64936;SDS011;51452;47.698;19.050;2022-12-07T02:11:02;4.87;;;2.97;;
64936;SDS011;51452;47.698;19.050;2022-12-07T02:13:30;4.57;;;2.60;;
64936;SDS011;51452;47.698;19.050;2022-12-07T02:26:44;4.33;;;2.73;;
64936;SDS011;51452;47.698;19.050;2022-12-07T02:31:50;4.53;;;2.83;;
64936;SDS011;51452;47.698;19.050;2022-12-07T02:34:30;4.97;;;2.83;;
64936;SDS011;51452;47.698;19.050;2022-12-07T02:37:04;5.97;;;2.97;;
64936;SDS011;51452;47.698;19.050;2022-12-07T02:40:02;3.90;;;2.67;;
64936;SDS011;51452;47.698;19.050;2022-12-07T02:42:36;3.50;;;2.30;;
64936;SDS011;51452;47.698;19.050;2022-12-07T02:45:07;4.27;;;2.80;;
64936;SDS011;51452;47.698;19.050;2022-12-07T02:47:35;4.77;;;2.83;;
64936;SDS011;51452;47.698;19.050;2022-12-07T02:50:03;4.10;;;2.80;;
64936;SDS011;51452;47.698;19.050;2022-12-07T02:52:30;4.03;;;2.40;;
64936;SDS011;51452;47.698;19.050;2022-12-07T02:54:55;4.97;;;2.93;;
64936;SDS011;51452;47.698;19.050;2022-12-07T02:57:25;6.13;;;3.33;;
64936;SDS011;51452;47.698;19.050;2022-12-07T03:00:06;5.40;;;3.23;;
64936;SDS011;51452;47.698;19.050;2022-12-07T03:10:49;5.17;;;3.33;;
64936;SDS011;51452;47.698;19.050;2022-12-07T03:16:22;4.93;;;2.73;;
64936;SDS011;51452;47.698;19.050;2022-12-07T03:19:03;6.47;;;2.90;;
64936;SDS011;51452;47.698;19.050;2022-12-07T03:21:36;5.63;;;3.10;;
64936;SDS011;51452;47.698;19.050;2022-12-07T03:24:06;5.20;;;3.30;;
64936;SDS011;51452;47.698;19.050;2022-12-07T03:26:36;4.70;;;3.03;;
64936;SDS011;51452;47.698;19.050;2022-12-07T03:29:08;4.47;;;2.83;;
64936;SDS011;51452;47.698;19.050;2022-12-07T03:31:41;5.00;;;2.80;;
64936;SDS011;51452;47.698;19.050;2022-12-07T03:34:29;5.17;;;2.80;;
64936;SDS011;51452;47.698;19.050;2022-12-07T03:37:03;4.37;;;3.03;;
64936;SDS011;51452;47.698;19.050;2022-12-07T03:39:44;4.87;;;3.20;;
64936;SDS011;51452;47.698;19.050;2022-12-07T03:42:16;5.47;;;3.33;;
64936;SDS011;51452;47.698;19.050;2022-12-07T03:44:41;5.83;;;2.70;;
64936;SDS011;51452;47.698;19.050;2022-12-07T03:49:58;6.53;;;3.30;;
64936;SDS011;51452;47.698;19.050;2022-12-07T03:52:45;4.03;;;3.13;;
64936;SDS011;51452;47.698;19.050;2022-12-07T03:55:28;5.87;;;3.70;;
64936;SDS011;51452;47.698;19.050;2022-12-07T03:57:58;5.07;;;3.33;;
64936;SDS011;51452;47.698;19.050;2022-12-07T04:00:28;5.47;;;3.33;;
64936;SDS011;51452;47.698;19.050;2022-12-07T04:02:54;4.97;;;3.33;;
64936;SDS011;51452;47.698;19.050;2022-12-07T04:05:20;5.47;;;3.43;;
64936;SDS011;51452;47.698;19.050;2022-12-07T04:07:46;7.87;;;4.33;;
64936;SDS011;51452;47.698;19.050;2022-12-07T04:10:11;6.33;;;4.07;;
64936;SDS011;51452;47.698;19.050;2022-12-07T04:12:37;8.67;;;4.77;;
64936;SDS011;51452;47.698;19.050;2022-12-07T04:15:03;8.70;;;5.53;;
64936;SDS011;51452;47.698;19.050;2022-12-07T04:17:29;8.33;;;5.03;;
64936;SDS011;51452;47.698;19.050;2022-12-07T04:19:54;9.63;;;5.47;;
64936;SDS011;51452;47.698;19.050;2022-12-07T04:22:20;9.57;;;5.50;;
64936;SDS011;51452;47.698;19.050;2022-12-07T04:24:45;9.40;;;5.33;;
64936;SDS011;51452;47.698;19.050;2022-12-07T04:27:10;8.93;;;5.50;;
64936;SDS011;51452;47.698;19.050;2022-12-07T04:29:36;9.43;;;5.93;;
64936;SDS011;51452;47.698;19.050;2022-12-07T04:32:01;9.07;;;5.83;;
64936;SDS011;51452;47.698;19.050;2022-12-07T04:34:27;9.67;;;5.70;;
64936;SDS011;51452;47.698;19.050;2022-12-07T04:36:52;9.60;;;6.10;;
64936;SDS011;51452;47.698;19.050;2022-12-07T04:39:22;8.80;;;5.90;;
64936;SDS011;51452;47.698;19.050;2022-12-07T04:41:49;9.60;;;6.43;;
64936;SDS011;51452;47.698;19.050;2022-12-07T04:44:15;9.83;;;5.90;;
64936;SDS011;51452;47.698;19.050;2022-12-07T04:46:41;9.53;;;6.03;;
64936;SDS011;51452;47.698;19.050;2022-12-07T04:49:06;9.63;;;6.37;;
64936;SDS011;51452;47.698;19.050;2022-12-07T04:51:32;10.57;;;6.17;;
64936;SDS011;51452;47.698;19.050;2022-12-07T04:53:57;11.70;;;6.57;;
64936;SDS011;51452;47.698;19.050;2022-12-07T04:56:23;12.97;;;6.97;;
64936;SDS011;51452;47.698;19.050;2022-12-07T04:58:49;11.67;;;6.63;;
64936;SDS011;51452;47.698;19.050;2022-12-07T05:01:16;12.60;;;7.00;;
64936;SDS011;51452;47.698;19.050;2022-12-07T05:03:42;12.10;;;7.77;;
64936;SDS011;51452;47.698;19.050;2022-12-07T05:06:08;13.23;;;8.30;;
64936;SDS011;51452;47.698;19.050;2022-12-07T05:08:35;10.27;;;7.00;;
64936;SDS011;51452;47.698;19.050;2022-12-07T05:11:02;10.17;;;6.70;;
64936;SDS011;51452;47.698;19.050;2022-12-07T05:13:28;11.57;;;6.60;;
64936;SDS011;51452;47.698;19.050;2022-12-07T05:15:54;12.27;;;6.73;;
64936;SDS011;51452;47.698;19.050;2022-12-07T05:18:19;9.90;;;6.13;;
64936;SDS011;51452;47.698;19.050;2022-12-07T05:20:45;9.90;;;6.23;;
64936;SDS011;51452;47.698;19.050;2022-12-07T05:23:11;10.47;;;6.57;;
64936;SDS011;51452;47.698;19.050;2022-12-07T05:25:36;10.37;;;6.50;;
64936;SDS011;51452;47.698;19.050;2022-12-07T05:28:02;9.90;;;6.40;;
64936;SDS011;51452;47.698;19.050;2022-12-07T05:30:28;9.93;;;6.30;;
64936;SDS011;51452;47.698;19.050;2022-12-07T05:32:54;9.53;;;5.87;;
64936;SDS011;51452;47.698;19.050;2022-12-07T05:35:19;10.03;;;6.47;;
64936;SDS011;51452;47.698;19.050;2022-12-07T05:37:45;10.20;;;6.40;;
64936;SDS011;51452;47.698;19.050;2022-12-07T05:40:11;12.20;;;6.23;;
64936;SDS011;51452;47.698;19.050;2022-12-07T05:42:38;10.20;;;5.90;;
64936;SDS011;51452;47.698;19.050;2022-12-07T05:45:04;10.67;;;6.07;;
64936;SDS011;51452;47.698;19.050;2022-12-07T05:47:30;8.70;;;5.87;;
64936;SDS011;51452;47.698;19.050;2022-12-07T05:49:55;10.97;;;6.60;;
64936;SDS011;51452;47.698;19.050;2022-12-07T05:52:21;9.33;;;5.73;;
64936;SDS011;51452;47.698;19.050;2022-12-07T05:54:46;9.53;;;6.00;;
64936;SDS011;51452;47.698;19.050;2022-12-07T05:57:11;8.97;;;5.97;;
64936;SDS011;51452;47.698;19.050;2022-12-07T05:59:37;8.83;;;5.40;;
64936;SDS011;51452;47.698;19.050;2022-12-07T06:02:03;10.90;;;5.97;;
64936;SDS011;51452;47.698;19.050;2022-12-07T06:04:43;10.03;;;5.50;;
64936;SDS011;51452;47.698;19.050;2022-12-07T06:07:14;12.60;;;7.80;;
64936;SDS011;51452;47.698;19.050;2022-12-07T06:09:40;16.50;;;9.10;;
64936;SDS011;51452;47.698;19.050;2022-12-07T06:12:05;19.50;;;10.20;;
64936;SDS011;51452;47.698;19.050;2022-12-07T06:14:50;18.13;;;10.00;;
64936;SDS011;51452;47.698;19.050;2022-12-07T06:17:16;13.57;;;8.83;;
64936;SDS011;51452;47.698;19.050;2022-12-07T06:19:41;13.73;;;8.40;;
64936;SDS011;51452;47.698;19.050;2022-12-07T06:22:08;10.77;;;7.43;;
64936;SDS011;51452;47.698;19.050;2022-12-07T06:24:35;10.97;;;6.27;;
64936;SDS011;51452;47.698;19.050;2022-12-07T06:27:01;11.37;;;6.10;;
64936;SDS011;51452;47.698;19.050;2022-12-07T06:29:26;10.40;;;6.50;;
64936;SDS011;51452;47.698;19.050;2022-12-07T06:31:51;9.67;;;6.17;;
64936;SDS011;51452;47.698;19.050;2022-12-07T06:34:18;9.90;;;6.23;;
64936;SDS011;51452;47.698;19.050;2022-12-07T06:36:45;10.17;;;6.10;;
64936;SDS011;51452;47.698;19.050;2022-12-07T06:39:16;11.47;;;6.37;;
64936;SDS011;51452;47.698;19.050;2022-12-07T06:41:41;8.83;;;6.33;;
64936;SDS011;51452;47.698;19.050;2022-12-07T06:44:07;9.37;;;6.27;;
64936;SDS011;51452;47.698;19.050;2022-12-07T06:46:32;10.87;;;6.37;;
64936;SDS011;51452;47.698;19.050;2022-12-07T06:49:00;10.90;;;6.83;;
64936;SDS011;51452;47.698;19.050;2022-12-07T06:51:25;12.30;;;7.23;;
64936;SDS011;51452;47.698;19.050;2022-12-07T06:53:51;11.17;;;6.30;;
64936;SDS011;51452;47.698;19.050;2022-12-07T06:56:16;9.03;;;6.33;;
64936;SDS011;51452;47.698;19.050;2022-12-07T06:58:41;9.13;;;6.00;;
64936;SDS011;51452;47.698;19.050;2022-12-07T07:01:10;13.20;;;7.73;;
64936;SDS011;51452;47.698;19.050;2022-12-07T07:03:37;10.23;;;6.83;;
64936;SDS011;51452;47.698;19.050;2022-12-07T07:06:03;11.63;;;6.70;;
64936;SDS011;51452;47.698;19.050;2022-12-07T07:08:29;10.13;;;6.40;;
64936;SDS011;51452;47.698;19.050;2022-12-07T07:10:54;8.13;;;5.20;;
64936;SDS011;51452;47.698;19.050;2022-12-07T07:13:19;9.73;;;5.87;;
64936;SDS011;51452;47.698;19.050;2022-12-07T07:15:45;10.00;;;5.83;;
64936;SDS011;51452;47.698;19.050;2022-12-07T07:18:10;7.47;;;4.80;;
64936;SDS011;51452;47.698;19.050;2022-12-07T07:20:36;7.80;;;4.80;;
64936;SDS011;51452;47.698;19.050;2022-12-07T07:23:02;9.67;;;5.33;;
64936;SDS011;51452;47.698;19.050;2022-12-07T07:25:27;7.10;;;4.73;;
64936;SDS011;51452;47.698;19.050;2022-12-07T07:27:52;7.10;;;4.77;;
64936;SDS011;51452;47.698;19.050;2022-12-07T07:30:18;6.97;;;4.80;;
64936;SDS011;51452;47.698;19.050;2022-12-07T07:32:43;6.40;;;4.43;;
64936;SDS011;51452;47.698;19.050;2022-12-07T07:35:09;6.70;;;4.00;;
64936;SDS011;51452;47.698;19.050;2022-12-07T07:37:34;7.10;;;4.63;;
64936;SDS011;51452;47.698;19.050;2022-12-07T07:39:59;7.43;;;4.53;;
64936;SDS011;51452;47.698;19.050;2022-12-07T07:42:25;6.63;;;4.20;;
64936;SDS011;51452;47.698;19.050;2022-12-07T07:44:50;7.03;;;4.37;;
64936;SDS011;51452;47.698;19.050;2022-12-07T07:47:16;6.53;;;4.30;;
64936;SDS011;51452;47.698;19.050;2022-12-07T07:49:41;7.83;;;4.40;;
64936;SDS011;51452;47.698;19.050;2022-12-07T07:52:06;5.27;;;3.93;;
64936;SDS011;51452;47.698;19.050;2022-12-07T07:54:32;7.57;;;3.87;;
64936;SDS011;51452;47.698;19.050;2022-12-07T07:56:57;7.13;;;4.10;;
64936;SDS011;51452;47.698;19.050;2022-12-07T07:59:23;6.57;;;3.60;;
64936;SDS011;51452;47.698;19.050;2022-12-07T08:01:49;6.57;;;4.00;;
64936;SDS011;51452;47.698;19.050;2022-12-07T08:04:15;6.03;;;3.93;;
64936;SDS011;51452;47.698;19.050;2022-12-07T08:06:41;5.50;;;3.53;;
64936;SDS011;51452;47.698;19.050;2022-12-07T08:09:07;5.27;;;3.53;;
64936;SDS011;51452;47.698;19.050;2022-12-07T08:11:33;6.70;;;4.30;;
64936;SDS011;51452;47.698;19.050;2022-12-07T08:13:59;9.37;;;4.63;;
64936;SDS011;51452;47.698;19.050;2022-12-07T08:16:24;6.40;;;4.00;;
64936;SDS011;51452;47.698;19.050;2022-12-07T08:18:49;7.53;;;4.27;;
64936;SDS011;51452;47.698;19.050;2022-12-07T08:21:15;6.83;;;4.43;;
64936;SDS011;51452;47.698;19.050;2022-12-07T08:23:40;9.33;;;4.90;;
64936;SDS011;51452;47.698;19.050;2022-12-07T08:26:07;8.20;;;4.40;;
64936;SDS011;51452;47.698;19.050;2022-12-07T08:28:34;6.53;;;4.40;;
64936;SDS011;51452;47.698;19.050;2022-12-07T08:31:04;7.53;;;4.63;;
64936;SDS011;51452;47.698;19.050;2022-12-07T08:33:32;9.37;;;5.50;;
64936;SDS011;51452;47.698;19.050;2022-12-07T08:36:03;10.13;;;5.00;;
64936;SDS011;51452;47.698;19.050;2022-12-07T08:38:30;7.20;;;4.67;;
64936;SDS011;51452;47.698;19.050;2022-12-07T08:40:57;8.07;;;4.70;;
64936;SDS011;51452;47.698;19.050;2022-12-07T08:43:23;6.30;;;3.83;;
64936;SDS011;51452;47.698;19.050;2022-12-07T08:45:49;6.73;;;4.13;;
64936;SDS011;51452;47.698;19.050;2022-12-07T08:48:27;6.37;;;4.30;;
64936;SDS011;51452;47.698;19.050;2022-12-07T08:50:53;8.93;;;4.63;;
64936;SDS011;51452;47.698;19.050;2022-12-07T08:53:18;5.40;;;3.97;;
64936;SDS011;51452;47.698;19.050;2022-12-07T08:55:47;6.40;;;4.10;;
64936;SDS011;51452;47.698;19.050;2022-12-07T08:58:13;5.80;;;3.97;;
64936;SDS011;51452;47.698;19.050;2022-12-07T09:00:39;6.77;;;4.07;;
64936;SDS011;51452;47.698;19.050;2022-12-07T09:03:04;5.07;;;3.20;;
64936;SDS011;51452;47.698;19.050;2022-12-07T09:05:30;6.27;;;3.50;;
64936;SDS011;51452;47.698;19.050;2022-12-07T09:07:58;5.37;;;3.43;;
64936;SDS011;51452;47.698;19.050;2022-12-07T09:10:26;5.40;;;3.17;;
64936;SDS011;51452;47.698;19.050;2022-12-07T09:12:51;5.87;;;3.53;;
64936;SDS011;51452;47.698;19.050;2022-12-07T09:15:17;5.30;;;3.17;;
64936;SDS011;51452;47.698;19.050;2022-12-07T09:17:42;5.07;;;3.43;;
64936;SDS011;51452;47.698;19.050;2022-12-07T09:20:07;5.07;;;3.40;;
64936;SDS011;51452;47.698;19.050;2022-12-07T09:22:33;6.03;;;3.60;;
64936;SDS011;51452;47.698;19.050;2022-12-07T09:24:59;4.67;;;2.97;;
64936;SDS011;51452;47.698;19.050;2022-12-07T09:27:25;4.93;;;3.23;;
64936;SDS011;51452;47.698;19.050;2022-12-07T09:29:51;6.67;;;2.97;;
64936;SDS011;51452;47.698;19.050;2022-12-07T09:32:16;4.70;;;3.30;;
64936;SDS011;51452;47.698;19.050;2022-12-07T09:34:41;4.60;;;2.83;;
64936;SDS011;51452;47.698;19.050;2022-12-07T09:37:07;4.73;;;2.80;;
64936;SDS011;51452;47.698;19.050;2022-12-07T09:39:33;5.07;;;2.93;;
64936;SDS011;51452;47.698;19.050;2022-12-07T09:41:58;5.43;;;3.10;;
64936;SDS011;51452;47.698;19.050;2022-12-07T09:44:28;6.10;;;3.23;;
64936;SDS011;51452;47.698;19.050;2022-12-07T09:46:54;4.83;;;3.13;;
64936;SDS011;51452;47.698;19.050;2022-12-07T09:49:21;6.13;;;3.50;;
64936;SDS011;51452;47.698;19.050;2022-12-07T09:51:59;6.07;;;3.67;;
64936;SDS011;51452;47.698;19.050;2022-12-07T09:54:27;5.87;;;3.70;;
64936;SDS011;51452;47.698;19.050;2022-12-07T09:56:54;7.00;;;4.20;;
64936;SDS011;51452;47.698;19.050;2022-12-07T09:59:19;4.87;;;3.27;;
64936;SDS011;51452;47.698;19.050;2022-12-07T10:01:48;6.13;;;3.10;;
64936;SDS011;51452;47.698;19.050;2022-12-07T10:04:19;5.83;;;3.47;;
64936;SDS011;51452;47.698;19.050;2022-12-07T10:06:47;5.83;;;2.87;;
64936;SDS011;51452;47.698;19.050;2022-12-07T10:09:14;5.03;;;2.93;;
64936;SDS011;51452;47.698;19.050;2022-12-07T10:11:57;4.53;;;2.80;;
64936;SDS011;51452;47.698;19.050;2022-12-07T10:14:24;5.00;;;2.67;;
64936;SDS011;51452;47.698;19.050;2022-12-07T10:16:53;4.50;;;2.60;;
64936;SDS011;51452;47.698;19.050;2022-12-07T10:24:40;4.77;;;2.47;;
64936;SDS011;51452;47.698;19.050;2022-12-07T10:29:55;4.20;;;2.40;;
64936;SDS011;51452;47.698;19.050;2022-12-07T10:32:35;4.47;;;2.37;;
64936;SDS011;51452;47.698;19.050;2022-12-07T10:35:17;4.33;;;2.60;;
64936;SDS011;51452;47.698;19.050;2022-12-07T10:37:46;4.55;;;2.97;;
64936;SDS011;51452;47.698;19.050;2022-12-07T10:48:16;4.72;;;2.85;;
64936;SDS011;51452;47.698;19.050;2022-12-07T11:10:17;5.80;;;3.23;;
64936;SDS011;51452;47.698;19.050;2022-12-07T11:23:51;5.07;;;3.00;;
64936;SDS011;51452;47.698;19.050;2022-12-07T11:37:05;4.53;;;3.00;;
64936;SDS011;51452;47.698;19.050;2022-12-07T11:39:39;4.43;;;2.70;;
64936;SDS011;51452;47.698;19.050;2022-12-07T11:42:14;3.65;;;2.28;;
64936;SDS011;51452;47.698;19.050;2022-12-07T11:44:52;4.33;;;2.77;;
64936;SDS011;51452;47.698;19.050;2022-12-07T11:55:40;4.37;;;2.80;;
64936;SDS011;51452;47.698;19.050;2022-12-07T12:06:32;3.90;;;2.63;;
64936;SDS011;51452;47.698;19.050;2022-12-07T12:17:20;5.70;;;2.77;;
64936;SDS011;51452;47.698;19.050;2022-12-07T12:22:52;4.97;;;3.13;;
64936;SDS011;51452;47.698;19.050;2022-12-07T12:25:27;5.57;;;3.43;;
64936;SDS011;51452;47.698;19.050;2022-12-07T12:27:55;4.53;;;2.60;;
64936;SDS011;51452;47.698;19.050;2022-12-07T12:30:44;4.47;;;3.20;;
64936;SDS011;51452;47.698;19.050;2022-12-07T12:35:39;6.27;;;3.10;;
64936;SDS011;51452;47.698;19.050;2022-12-07T12:41:50;5.33;;;3.03;;
64936;SDS011;51452;47.698;19.050;2022-12-07T12:44:03;5.20;;;3.60;;
64936;SDS011;51452;47.698;19.050;2022-12-07T12:54:23;6.67;;;3.30;;
64936;SDS011;51452;47.698;19.050;2022-12-07T12:57:08;3.83;;;2.70;;
64936;SDS011;51452;47.698;19.050;2022-12-07T13:02:30;4.73;;;2.73;;
64936;SDS011;51452;47.698;19.050;2022-12-07T13:05:02;5.87;;;3.60;;
64936;SDS011;51452;47.698;19.050;2022-12-07T13:15:46;6.87;;;4.43;;
64936;SDS011;51452;47.698;19.050;2022-12-07T13:20:57;6.90;;;4.60;;
64936;SDS011;51452;47.698;19.050;2022-12-07T13:23:38;7.35;;;4.20;;
64936;SDS011;51452;47.698;19.050;2022-12-07T13:31:41;9.23;;;4.50;;
64936;SDS011;51452;47.698;19.050;2022-12-07T13:36:56;7.20;;;4.40;;
64936;SDS011;51452;47.698;19.050;2022-12-07T13:39:23;5.70;;;4.03;;
64936;SDS011;51452;47.698;19.050;2022-12-07T13:41:58;7.53;;;4.33;;
64936;SDS011;51452;47.698;19.050;2022-12-07T13:44:25;7.35;;;3.90;;
64936;SDS011;51452;47.698;19.050;2022-12-07T13:49:37;6.83;;;3.70;;
64936;SDS011;51452;47.698;19.050;2022-12-07T13:52:18;6.70;;;3.70;;
64936;SDS011;51452;47.698;19.050;2022-12-07T13:54:46;6.53;;;4.03;;
64936;SDS011;51452;47.698;19.050;2022-12-07T13:57:24;5.67;;;3.80;;
64936;SDS011;51452;47.698;19.050;2022-12-07T13:59:51;5.60;;;3.37;;
64936;SDS011;51452;47.698;19.050;2022-12-07T14:02:22;6.90;;;4.30;;
64936;SDS011;51452;47.698;19.050;2022-12-07T14:04:50;7.47;;;3.50;;
64936;SDS011;51452;47.698;19.050;2022-12-07T14:07:24;7.03;;;4.10;;
64936;SDS011;51452;47.698;19.050;2022-12-07T14:09:58;6.78;;;4.47;;
64936;SDS011;51452;47.698;19.050;2022-12-07T14:12:26;7.20;;;4.32;;
64936;SDS011;51452;47.698;19.050;2022-12-07T14:14:53;6.00;;;3.90;;
64936;SDS011;51452;47.698;19.050;2022-12-07T14:17:20;6.93;;;4.20;;
64936;SDS011;51452;47.698;19.050;2022-12-07T14:19:53;6.77;;;4.30;;
64936;SDS011;51452;47.698;19.050;2022-12-07T14:22:25;6.70;;;3.80;;
64936;SDS011;51452;47.698;19.050;2022-12-07T14:27:47;7.13;;;4.30;;
64936;SDS011;51452;47.698;19.050;2022-12-07T14:30:25;8.03;;;4.73;;
64936;SDS011;51452;47.698;19.050;2022-12-07T14:33:04;7.47;;;4.37;;
64936;SDS011;51452;47.698;19.050;2022-12-07T14:37:56;6.43;;;4.00;;
64936;SDS011;51452;47.698;19.050;2022-12-07T14:40:26;7.33;;;4.13;;
64936;SDS011;51452;47.698;19.050;2022-12-07T14:42:54;7.83;;;4.73;;
64936;SDS011;51452;47.698;19.050;2022-12-07T14:45:23;8.57;;;5.13;;
64936;SDS011;51452;47.698;19.050;2022-12-07T14:47:48;7.30;;;4.40;;
64936;SDS011;51452;47.698;19.050;2022-12-07T14:50:15;8.83;;;4.87;;
64936;SDS011;51452;47.698;19.050;2022-12-07T14:52:53;8.87;;;4.63;;
64936;SDS011;51452;47.698;19.050;2022-12-07T14:55:25;7.13;;;4.57;;
64936;SDS011;51452;47.698;19.050;2022-12-07T14:57:53;9.00;;;4.90;;
64936;SDS011;51452;47.698;19.050;2022-12-07T15:00:20;9.23;;;5.07;;
64936;SDS011;51452;47.698;19.050;2022-12-07T15:02:47;8.43;;;5.57;;
64936;SDS011;51452;47.698;19.050;2022-12-07T15:05:13;9.17;;;5.83;;
64936;SDS011;51452;47.698;19.050;2022-12-07T15:07:39;9.73;;;5.53;;
64936;SDS011;51452;47.698;19.050;2022-12-07T15:10:05;8.03;;;4.87;;
64936;SDS011;51452;47.698;19.050;2022-12-07T15:12:37;7.37;;;4.50;;
64936;SDS011;51452;47.698;19.050;2022-12-07T15:15:03;8.70;;;5.30;;
64936;SDS011;51452;47.698;19.050;2022-12-07T15:17:29;8.93;;;5.17;;
64936;SDS011;51452;47.698;19.050;2022-12-07T15:19:54;11.70;;;6.00;;
64936;SDS011;51452;47.698;19.050;2022-12-07T15:22:19;12.43;;;6.33;;
64936;SDS011;51452;47.698;19.050;2022-12-07T15:24:45;14.43;;;7.07;;
64936;SDS011;51452;47.698;19.050;2022-12-07T15:27:10;14.97;;;7.73;;
64936;SDS011;51452;47.698;19.050;2022-12-07T15:29:35;15.03;;;6.97;;
64936;SDS011;51452;47.698;19.050;2022-12-07T15:32:01;13.40;;;6.17;;
64936;SDS011;51452;47.698;19.050;2022-12-07T15:34:27;16.97;;;7.40;;
64936;SDS011;51452;47.698;19.050;2022-12-07T15:36:53;12.00;;;6.23;;
64936;SDS011;51452;47.698;19.050;2022-12-07T15:39:19;11.53;;;6.70;;
64936;SDS011;51452;47.698;19.050;2022-12-07T15:41:44;10.47;;;6.23;;
64936;SDS011;51452;47.698;19.050;2022-12-07T15:44:11;9.70;;;5.67;;
64936;SDS011;51452;47.698;19.050;2022-12-07T15:46:56;13.03;;;6.87;;
64936;SDS011;51452;47.698;19.050;2022-12-07T15:49:22;12.30;;;7.10;;
64936;SDS011;51452;47.698;19.050;2022-12-07T15:51:47;14.00;;;8.17;;
64936;SDS011;51452;47.698;19.050;2022-12-07T15:54:15;12.37;;;7.00;;
64936;SDS011;51452;47.698;19.050;2022-12-07T15:56:43;18.63;;;9.17;;
64936;SDS011;51452;47.698;19.050;2022-12-07T15:59:08;15.50;;;7.87;;
64936;SDS011;51452;47.698;19.050;2022-12-07T16:01:34;12.23;;;6.23;;
64936;SDS011;51452;47.698;19.050;2022-12-07T16:03:59;17.60;;;8.37;;
64936;SDS011;51452;47.698;19.050;2022-12-07T16:06:25;14.20;;;8.03;;
64936;SDS011;51452;47.698;19.050;2022-12-07T16:08:50;14.27;;;7.57;;
64936;SDS011;51452;47.698;19.050;2022-12-07T16:11:16;14.97;;;7.60;;
64936;SDS011;51452;47.698;19.050;2022-12-07T16:13:41;13.03;;;6.20;;
64936;SDS011;51452;47.698;19.050;2022-12-07T16:16:07;8.60;;;4.93;;
64936;SDS011;51452;47.698;19.050;2022-12-07T16:18:35;10.83;;;6.03;;
64936;SDS011;51452;47.698;19.050;2022-12-07T16:21:00;8.50;;;5.00;;
64936;SDS011;51452;47.698;19.050;2022-12-07T16:23:26;10.37;;;5.17;;
64936;SDS011;51452;47.698;19.050;2022-12-07T16:25:52;11.00;;;5.63;;
64936;SDS011;51452;47.698;19.050;2022-12-07T16:28:18;9.30;;;5.20;;
64936;SDS011;51452;47.698;19.050;2022-12-07T16:30:43;9.57;;;4.07;;
64936;SDS011;51452;47.698;19.050;2022-12-07T16:33:09;8.23;;;4.73;;
64936;SDS011;51452;47.698;19.050;2022-12-07T16:35:37;8.07;;;4.83;;
64936;SDS011;51452;47.698;19.050;2022-12-07T16:38:05;9.10;;;4.77;;
64936;SDS011;51452;47.698;19.050;2022-12-07T16:40:31;7.90;;;4.30;;
64936;SDS011;51452;47.698;19.050;2022-12-07T16:42:57;7.57;;;4.53;;
64936;SDS011;51452;47.698;19.050;2022-12-07T16:45:23;7.40;;;4.30;;
64936;SDS011;51452;47.698;19.050;2022-12-07T16:47:48;7.97;;;4.03;;
64936;SDS011;51452;47.698;19.050;2022-12-07T16:50:13;6.07;;;3.60;;
64936;SDS011;51452;47.698;19.050;2022-12-07T16:52:39;6.73;;;3.93;;
64936;SDS011;51452;47.698;19.050;2022-12-07T16:55:04;7.37;;;3.70;;
64936;SDS011;51452;47.698;19.050;2022-12-07T16:57:30;7.00;;;3.93;;
64936;SDS011;51452;47.698;19.050;2022-12-07T16:59:58;6.90;;;3.50;;
64936;SDS011;51452;47.698;19.050;2022-12-07T17:02:24;7.40;;;4.47;;
64936;SDS011;51452;47.698;19.050;2022-12-07T17:04:50;6.37;;;3.80;;
64936;SDS011;51452;47.698;19.050;2022-12-07T17:07:15;6.90;;;3.60;;
64936;SDS011;51452;47.698;19.050;2022-12-07T17:09:44;9.10;;;4.10;;
64936;SDS011;51452;47.698;19.050;2022-12-07T17:12:09;8.30;;;5.10;;
64936;SDS011;51452;47.698;19.050;2022-12-07T17:14:35;8.27;;;5.07;;